sensor_id;sensor_type;location;lat;lon;timestamp;pressure;altitude;pressure_sealevel;temperature;humidity
7986;BME280;4038;42.612;23.066;2022-12-05T00:00:23;93821.88;;;25.04;28.01
7986;BME280;4038;42.612;23.066;2022-12-05T00:02:49;93824.88;;;24.74;28.21
7986;BME280;4038;42.612;23.066;2022-12-05T00:05:14;93819.22;;;23.77;29.52
7986;BME280;4038;42.612;23.066;2022-12-05T00:07:40;93828.66;;;23.11;30.69
7986;BME280;4038;42.612;23.066;2022-12-05T00:10:05;93823.50;;;24.82;28.55
7986;BME280;4038;42.612;23.066;2022-12-05T00:12:31;93830.66;;;24.76;28.54
7986;BME280;4038;42.612;23.066;2022-12-05T00:14:57;93837.16;;;23.73;29.89
7986;BME280;4038;42.612;23.066;2022-12-05T00:17:22;93840.06;;;25.20;27.93
7986;BME280;4038;42.612;23.066;2022-12-05T00:19:47;93837.34;;;24.80;28.33
7986;BME280;4038;42.612;23.066;2022-12-05T00:22:13;93833.34;;;24.66;28.48
7986;BME280;4038;42.612;23.066;2022-12-05T00:24:38;93849.38;;;25.06;28.29
7986;BME280;4038;42.612;23.066;2022-12-05T00:27:04;93826.06;;;23.91;29.63
7986;BME280;4038;42.612;23.066;2022-12-05T00:29:29;93830.91;;;22.89;30.91
7986;BME280;4038;42.612;23.066;2022-12-05T00:31:55;93826.75;;;23.28;30.82
7986;BME280;4038;42.612;23.066;2022-12-05T00:34:20;93830.50;;;23.31;30.28
7986;BME280;4038;42.612;23.066;2022-12-05T00:36:46;93831.53;;;22.22;32.18
7986;BME280;4038;42.612;23.066;2022-12-05T00:39:12;93835.13;;;24.06;30.61
7986;BME280;4038;42.612;23.066;2022-12-05T00:41:41;93838.31;;;23.55;31.17
7986;BME280;4038;42.612;23.066;2022-12-05T00:44:07;93830.91;;;22.74;32.24
7986;BME280;4038;42.612;23.066;2022-12-05T00:46:34;93831.41;;;22.57;32.04
7986;BME280;4038;42.612;23.066;2022-12-05T00:49:01;93822.81;;;22.33;32.76
7986;BME280;4038;42.612;23.066;2022-12-05T00:51:29;93823.31;;;22.08;33.84
7986;BME280;4038;42.612;23.066;2022-12-05T00:53:59;93822.78;;;21.10;34.92
7986;BME280;4038;42.612;23.066;2022-12-05T00:56:26;93822.25;;;20.90;35.03
7986;BME280;4038;42.612;23.066;2022-12-05T00:58:53;93817.47;;;20.49;35.85
7986;BME280;4038;42.612;23.066;2022-12-05T01:01:25;93807.97;;;21.51;34.55
7986;BME280;4038;42.612;23.066;2022-12-05T01:03:53;93805.81;;;20.79;35.82
7986;BME280;4038;42.612;23.066;2022-12-05T01:06:20;93818.03;;;20.14;36.37
7986;BME280;4038;42.612;23.066;2022-12-05T01:08:46;93806.66;;;20.12;35.81
7986;BME280;4038;42.612;23.066;2022-12-05T01:11:14;93811.16;;;20.15;36.53
7986;BME280;4038;42.612;23.066;2022-12-05T01:13:40;93813.00;;;20.12;36.47
7986;BME280;4038;42.612;23.066;2022-12-05T01:16:06;93809.31;;;20.51;35.09
7986;BME280;4038;42.612;23.066;2022-12-05T01:18:37;93803.59;;;21.70;33.12
7986;BME280;4038;42.612;23.066;2022-12-05T01:21:04;93814.03;;;20.85;35.48
7986;BME280;4038;42.612;23.066;2022-12-05T01:23:29;93806.75;;;21.67;33.52
7986;BME280;4038;42.612;23.066;2022-12-05T01:25:55;93795.50;;;21.52;33.40
7986;BME280;4038;42.612;23.066;2022-12-05T01:28:20;93797.47;;;21.72;33.14
7986;BME280;4038;42.612;23.066;2022-12-05T01:30:47;93790.41;;;21.78;33.59
7986;BME280;4038;42.612;23.066;2022-12-05T01:33:13;93786.63;;;21.61;33.56
7986;BME280;4038;42.612;23.066;2022-12-05T01:35:40;93784.44;;;22.71;32.23
7986;BME280;4038;42.612;23.066;2022-12-05T01:38:05;93772.47;;;22.02;33.10
7986;BME280;4038;42.612;23.066;2022-12-05T01:40:32;93778.84;;;22.48;32.64
7986;BME280;4038;42.612;23.066;2022-12-05T01:43:00;93785.22;;;21.90;32.67
7986;BME280;4038;42.612;23.066;2022-12-05T01:45:36;93793.88;;;23.59;31.13
7986;BME280;4038;42.612;23.066;2022-12-05T01:48:04;93782.41;;;23.17;31.25
7986;BME280;4038;42.612;23.066;2022-12-05T01:50:32;93784.78;;;23.99;30.34
7986;BME280;4038;42.612;23.066;2022-12-05T01:52:58;93792.50;;;23.83;30.00
7986;BME280;4038;42.612;23.066;2022-12-05T01:55:24;93797.13;;;24.61;28.65
7986;BME280;4038;42.612;23.066;2022-12-05T01:57:50;93789.22;;;24.02;29.49
7986;BME280;4038;42.612;23.066;2022-12-05T02:00:18;93784.84;;;25.57;28.14
7986;BME280;4038;42.612;23.066;2022-12-05T02:02:54;93786.84;;;25.99;27.67
7986;BME280;4038;42.612;23.066;2022-12-05T02:05:31;93792.84;;;26.13;26.91
7986;BME280;4038;42.612;23.066;2022-12-05T02:08:00;93794.13;;;25.08;28.45
7986;BME280;4038;42.612;23.066;2022-12-05T02:10:27;93795.31;;;25.22;28.19
7986;BME280;4038;42.612;23.066;2022-12-05T02:12:58;93794.91;;;25.43;28.27
7986;BME280;4038;42.612;23.066;2022-12-05T02:15:42;93788.44;;;25.58;27.88
7986;BME280;4038;42.612;23.066;2022-12-05T02:30:22;93775.66;;;25.05;28.85
7986;BME280;4038;42.612;23.066;2022-12-05T02:33:10;93777.13;;;24.57;29.13
7986;BME280;4038;42.612;23.066;2022-12-05T02:35:49;93780.75;;;24.17;29.96
7986;BME280;4038;42.612;23.066;2022-12-05T02:41:10;93787.53;;;26.17;27.45
7986;BME280;4038;42.612;23.066;2022-12-05T02:46:16;93782.75;;;25.06;28.60
7986;BME280;4038;42.612;23.066;2022-12-05T02:48:45;93780.31;;;24.61;29.60
7986;BME280;4038;42.612;23.066;2022-12-05T02:51:14;93780.03;;;24.49;29.48
7986;BME280;4038;42.612;23.066;2022-12-05T02:53:43;93778.72;;;24.42;29.58
7986;BME280;4038;42.612;23.066;2022-12-05T02:56:10;93773.41;;;23.34;31.08
7986;BME280;4038;42.612;23.066;2022-12-05T02:58:53;93775.69;;;25.57;28.18
7986;BME280;4038;42.612;23.066;2022-12-05T03:01:22;93759.00;;;25.76;27.76
7986;BME280;4038;42.612;23.066;2022-12-05T03:03:48;93765.94;;;23.29;30.11
7986;BME280;4038;42.612;23.066;2022-12-05T03:06:24;93779.59;;;25.02;28.40
7986;BME280;4038;42.612;23.066;2022-12-05T03:08:59;93769.34;;;23.83;30.06
7986;BME280;4038;42.612;23.066;2022-12-05T03:11:35;93762.38;;;23.44;30.96
7986;BME280;4038;42.612;23.066;2022-12-05T03:14:02;93763.91;;;23.85;30.50
7986;BME280;4038;42.612;23.066;2022-12-05T03:16:36;93766.47;;;24.30;29.92
7986;BME280;4038;42.612;23.066;2022-12-05T03:19:11;93769.34;;;25.56;28.44
7986;BME280;4038;42.612;23.066;2022-12-05T03:21:44;93771.06;;;25.35;28.93
7986;BME280;4038;42.612;23.066;2022-12-05T03:24:13;93776.13;;;24.69;29.96
7986;BME280;4038;42.612;23.066;2022-12-05T03:32:29;93780.13;;;25.25;28.78
7986;BME280;4038;42.612;23.066;2022-12-05T03:40:25;93775.78;;;24.00;30.18
7986;BME280;4038;42.612;23.066;2022-12-05T03:45:33;93775.88;;;25.59;28.39
7986;BME280;4038;42.612;23.066;2022-12-05T03:48:06;93782.97;;;25.77;27.94
7986;BME280;4038;42.612;23.066;2022-12-05T03:50:36;93774.63;;;26.31;27.50
7986;BME280;4038;42.612;23.066;2022-12-05T03:53:07;93785.09;;;25.17;28.63
7986;BME280;4038;42.612;23.066;2022-12-05T03:55:37;93781.03;;;25.11;28.63
7986;BME280;4038;42.612;23.066;2022-12-05T03:58:32;93782.19;;;25.94;27.54
7986;BME280;4038;42.612;23.066;2022-12-05T04:01:00;93777.31;;;25.08;28.38
7986;BME280;4038;42.612;23.066;2022-12-05T04:03:47;93778.59;;;26.55;26.70
7986;BME280;4038;42.612;23.066;2022-12-05T04:06:33;93765.47;;;27.03;26.12
7986;BME280;4038;42.612;23.066;2022-12-05T04:09:07;93763.66;;;26.25;27.18
7986;BME280;4038;42.612;23.066;2022-12-05T04:11:36;93766.50;;;26.35;27.10
7986;BME280;4038;42.612;23.066;2022-12-05T04:14:08;93765.34;;;26.38;26.93
7986;BME280;4038;42.612;23.066;2022-12-05T04:19:49;93762.09;;;27.24;25.87
7986;BME280;4038;42.612;23.066;2022-12-05T04:22:36;93771.06;;;25.35;28.07
7986;BME280;4038;42.612;23.066;2022-12-05T04:25:05;93768.16;;;24.83;28.90
7986;BME280;4038;42.612;23.066;2022-12-05T04:33:14;93772.28;;;23.29;30.37
7986;BME280;4038;42.612;23.066;2022-12-05T04:38:22;93760.16;;;25.39;28.34
7986;BME280;4038;42.612;23.066;2022-12-05T04:40:54;93769.78;;;24.04;30.16
7986;BME280;4038;42.612;23.066;2022-12-05T04:43:22;93776.38;;;24.31;29.87
7986;BME280;4038;42.612;23.066;2022-12-05T04:45:50;93774.38;;;24.17;30.16
7986;BME280;4038;42.612;23.066;2022-12-05T04:48:17;93779.81;;;23.12;30.91
7986;BME280;4038;42.612;23.066;2022-12-05T04:50:45;93773.72;;;23.61;31.08
7986;BME280;4038;42.612;23.066;2022-12-05T04:53:13;93783.09;;;22.27;32.68
7986;BME280;4038;42.612;23.066;2022-12-05T04:55:44;93782.38;;;23.25;31.86
7986;BME280;4038;42.612;23.066;2022-12-05T04:58:29;93791.66;;;24.38;30.09
7986;BME280;4038;42.612;23.066;2022-12-05T05:03:47;93799.53;;;24.89;29.65
7986;BME280;4038;42.612;23.066;2022-12-05T05:06:14;93806.25;;;22.50;31.84
7986;BME280;4038;42.612;23.066;2022-12-05T05:08:48;93807.94;;;23.92;30.56
7986;BME280;4038;42.612;23.066;2022-12-05T05:11:21;93808.44;;;22.29;31.93
7986;BME280;4038;42.612;23.066;2022-12-05T05:13:47;93808.97;;;21.32;33.43
7986;BME280;4038;42.612;23.066;2022-12-05T05:16:15;93800.59;;;21.68;33.84
7986;BME280;4038;42.612;23.066;2022-12-05T05:18:44;93801.41;;;22.43;32.35
7986;BME280;4038;42.612;23.066;2022-12-05T05:21:30;93801.97;;;21.83;33.13
7986;BME280;4038;42.612;23.066;2022-12-05T05:23:57;93815.22;;;20.97;34.35
7986;BME280;4038;42.612;23.066;2022-12-05T05:26:23;93819.25;;;20.60;35.37
7986;BME280;4038;42.612;23.066;2022-12-05T05:28:49;93811.72;;;20.76;34.58
7986;BME280;4038;42.612;23.066;2022-12-05T05:31:16;93818.66;;;22.03;33.09
7986;BME280;4038;42.612;23.066;2022-12-05T05:33:41;93823.13;;;22.14;32.18
7986;BME280;4038;42.612;23.066;2022-12-05T05:36:09;93829.38;;;23.34;31.44
7986;BME280;4038;42.612;23.066;2022-12-05T05:38:43;93831.59;;;23.51;30.96
7986;BME280;4038;42.612;23.066;2022-12-05T05:41:20;93824.34;;;23.48;31.10
7986;BME280;4038;42.612;23.066;2022-12-05T05:43:46;93830.28;;;21.51;33.19
7986;BME280;4038;42.612;23.066;2022-12-05T05:46:17;93828.00;;;22.21;33.01
7986;BME280;4038;42.612;23.066;2022-12-05T05:48:43;93821.03;;;21.99;32.60
7986;BME280;4038;42.612;23.066;2022-12-05T05:51:10;93829.56;;;23.21;31.76
7986;BME280;4038;42.612;23.066;2022-12-05T05:53:36;93832.97;;;22.81;31.60
7986;BME280;4038;42.612;23.066;2022-12-05T05:56:12;93825.59;;;24.49;29.82
7986;BME280;4038;42.612;23.066;2022-12-05T05:58:38;93825.47;;;23.07;31.20
7986;BME280;4038;42.612;23.066;2022-12-05T06:01:17;93823.91;;;22.30;31.88
7986;BME280;4038;42.612;23.066;2022-12-05T06:03:44;93836.97;;;21.48;33.34
7986;BME280;4038;42.612;23.066;2022-12-05T06:06:12;93826.56;;;22.58;32.55
7986;BME280;4038;42.612;23.066;2022-12-05T06:08:39;93815.00;;;22.46;32.71
7986;BME280;4038;42.612;23.066;2022-12-05T06:11:09;93820.06;;;23.31;31.33
7986;BME280;4038;42.612;23.066;2022-12-05T06:13:35;93825.22;;;21.41;33.33
7986;BME280;4038;42.612;23.066;2022-12-05T06:16:04;93819.03;;;21.07;33.68
7986;BME280;4038;42.612;23.066;2022-12-05T06:18:30;93834.63;;;21.02;33.63
7986;BME280;4038;42.612;23.066;2022-12-05T06:20:56;93830.56;;;21.11;35.02
7986;BME280;4038;42.612;23.066;2022-12-05T06:23:22;93829.41;;;21.27;34.20
7986;BME280;4038;42.612;23.066;2022-12-05T06:25:49;93822.91;;;21.61;33.86
7986;BME280;4038;42.612;23.066;2022-12-05T06:28:16;93820.56;;;21.80;33.90
7986;BME280;4038;42.612;23.066;2022-12-05T06:30:43;93832.38;;;23.06;31.80
7986;BME280;4038;42.612;23.066;2022-12-05T06:33:08;93820.78;;;22.71;31.57
7986;BME280;4038;42.612;23.066;2022-12-05T06:35:34;93827.16;;;23.10;31.50
7986;BME280;4038;42.612;23.066;2022-12-05T06:37:59;93838.84;;;24.81;29.76
7986;BME280;4038;42.612;23.066;2022-12-05T06:40:24;93831.19;;;24.49;29.33
7986;BME280;4038;42.612;23.066;2022-12-05T06:42:50;93838.06;;;25.13;28.45
7986;BME280;4038;42.612;23.066;2022-12-05T06:45:15;93834.72;;;24.90;28.58
7986;BME280;4038;42.612;23.066;2022-12-05T06:47:41;93834.34;;;24.13;29.15
7986;BME280;4038;42.612;23.066;2022-12-05T06:50:07;93829.03;;;24.40;29.56
7986;BME280;4038;42.612;23.066;2022-12-05T06:52:32;93839.25;;;24.13;29.42
7986;BME280;4038;42.612;23.066;2022-12-05T06:54:57;93842.59;;;25.09;28.18
7986;BME280;4038;42.612;23.066;2022-12-05T06:57:24;93842.72;;;24.94;28.87
7986;BME280;4038;42.612;23.066;2022-12-05T06:59:49;93845.44;;;23.11;30.99
7986;BME280;4038;42.612;23.066;2022-12-05T07:02:15;93843.75;;;23.08;31.20
7986;BME280;4038;42.612;23.066;2022-12-05T07:04:40;93845.78;;;21.59;33.75
7986;BME280;4038;42.612;23.066;2022-12-05T07:07:05;93846.81;;;20.50;35.36
7986;BME280;4038;42.612;23.066;2022-12-05T07:09:31;93836.84;;;21.53;33.87
7986;BME280;4038;42.612;23.066;2022-12-05T07:12:17;93841.91;;;24.43;30.44
7986;BME280;4038;42.612;23.066;2022-12-05T07:14:43;93836.16;;;24.99;29.01
7986;BME280;4038;42.612;23.066;2022-12-05T07:17:09;93831.97;;;23.55;30.59
7986;BME280;4038;42.612;23.066;2022-12-05T07:19:34;93836.81;;;24.49;29.64
7986;BME280;4038;42.612;23.066;2022-12-05T07:22:00;93841.94;;;25.43;28.10
7986;BME280;4038;42.612;23.066;2022-12-05T07:24:26;93849.31;;;24.81;29.53
7986;BME280;4038;42.612;23.066;2022-12-05T07:26:51;93826.38;;;23.47;30.88
7986;BME280;4038;42.612;23.066;2022-12-05T07:29:17;93834.22;;;23.41;30.98
7986;BME280;4038;42.612;23.066;2022-12-05T07:31:43;93837.03;;;24.04;30.85
7986;BME280;4038;42.612;23.066;2022-12-05T07:34:08;93829.16;;;23.70;30.96
7986;BME280;4038;42.612;23.066;2022-12-05T07:36:34;93838.00;;;25.63;28.61
7986;BME280;4038;42.612;23.066;2022-12-05T07:39:00;93842.44;;;24.09;30.13
7986;BME280;4038;42.612;23.066;2022-12-05T07:41:27;93842.22;;;25.29;29.52
7986;BME280;4038;42.612;23.066;2022-12-05T07:43:55;93847.38;;;24.99;29.62
7986;BME280;4038;42.612;23.066;2022-12-05T07:46:20;93857.19;;;24.10;30.06
7986;BME280;4038;42.612;23.066;2022-12-05T07:48:47;93853.44;;;25.29;28.97
7986;BME280;4038;42.612;23.066;2022-12-05T07:51:12;93855.56;;;26.15;27.83
7986;BME280;4038;42.612;23.066;2022-12-05T07:53:39;93850.38;;;25.60;28.49
7986;BME280;4038;42.612;23.066;2022-12-05T07:56:09;93856.13;;;25.45;28.79
7986;BME280;4038;42.612;23.066;2022-12-05T07:58:35;93859.75;;;25.38;28.23
7986;BME280;4038;42.612;23.066;2022-12-05T08:03:41;93851.94;;;23.51;31.02
7986;BME280;4038;42.612;23.066;2022-12-05T08:06:15;93854.78;;;24.46;30.32
7986;BME280;4038;42.612;23.066;2022-12-05T08:08:41;93849.75;;;24.05;30.81
7986;BME280;4038;42.612;23.066;2022-12-05T08:11:14;93852.69;;;24.07;31.00
7986;BME280;4038;42.612;23.066;2022-12-05T08:13:40;93847.84;;;24.07;31.18
7986;BME280;4038;42.612;23.066;2022-12-05T08:16:10;93850.94;;;23.79;31.44
7986;BME280;4038;42.612;23.066;2022-12-05T08:18:36;93852.41;;;23.88;30.76
7986;BME280;4038;42.612;23.066;2022-12-05T08:21:06;93862.41;;;25.53;29.00
7986;BME280;4038;42.612;23.066;2022-12-05T08:23:38;93851.50;;;26.43;28.08
7986;BME280;4038;42.612;23.066;2022-12-05T08:26:16;93849.31;;;24.81;30.26
7986;BME280;4038;42.612;23.066;2022-12-05T08:28:43;93842.94;;;25.13;29.39
7986;BME280;4038;42.612;23.066;2022-12-05T08:31:16;93850.72;;;23.85;31.33
7986;BME280;4038;42.612;23.066;2022-12-05T08:33:42;93855.50;;;23.14;32.00
7986;BME280;4038;42.612;23.066;2022-12-05T08:36:12;93857.44;;;23.97;31.18
7986;BME280;4038;42.612;23.066;2022-12-05T08:38:38;93858.25;;;21.58;34.32
7986;BME280;4038;42.612;23.066;2022-12-05T08:41:06;93853.47;;;20.89;35.70
7986;BME280;4038;42.612;23.066;2022-12-05T08:43:35;93846.31;;;21.94;33.64
7986;BME280;4038;42.612;23.066;2022-12-05T08:46:01;93859.72;;;22.39;33.73
7986;BME280;4038;42.612;23.066;2022-12-05T08:48:28;93855.75;;;22.27;33.48
7986;BME280;4038;42.612;23.066;2022-12-05T08:50:55;93862.66;;;21.46;34.78
7986;BME280;4038;42.612;23.066;2022-12-05T08:53:20;93856.09;;;23.05;32.46
7986;BME280;4038;42.612;23.066;2022-12-05T08:55:46;93860.59;;;22.34;34.06
7986;BME280;4038;42.612;23.066;2022-12-05T08:58:12;93871.53;;;23.51;32.31
7986;BME280;4038;42.612;23.066;2022-12-05T09:00:39;93865.44;;;24.00;31.52
7986;BME280;4038;42.612;23.066;2022-12-05T09:03:05;93870.75;;;23.66;31.71
7986;BME280;4038;42.612;23.066;2022-12-05T09:05:31;93868.88;;;22.62;33.04
7986;BME280;4038;42.612;23.066;2022-12-05T09:07:57;93868.88;;;21.60;34.48
7986;BME280;4038;42.612;23.066;2022-12-05T09:10:24;93865.94;;;23.44;32.70
7986;BME280;4038;42.612;23.066;2022-12-05T09:12:49;93860.03;;;22.28;33.94
7986;BME280;4038;42.612;23.066;2022-12-05T09:15:15;93858.13;;;23.19;32.58
7986;BME280;4038;42.612;23.066;2022-12-05T09:17:41;93859.25;;;23.09;32.56
7986;BME280;4038;42.612;23.066;2022-12-05T09:20:07;93861.41;;;23.79;31.89
7986;BME280;4038;42.612;23.066;2022-12-05T09:22:33;93857.69;;;23.68;31.62
7986;BME280;4038;42.612;23.066;2022-12-05T09:24:59;93859.75;;;24.23;30.83
7986;BME280;4038;42.612;23.066;2022-12-05T09:27:27;93861.19;;;26.32;28.38
7986;BME280;4038;42.612;23.066;2022-12-05T09:29:53;93856.63;;;25.09;29.33
7986;BME280;4038;42.612;23.066;2022-12-05T09:32:18;93858.19;;;26.74;27.50
7986;BME280;4038;42.612;23.066;2022-12-05T09:34:44;93857.72;;;25.13;29.45
7986;BME280;4038;42.612;23.066;2022-12-05T09:37:09;93851.22;;;26.04;28.35
7986;BME280;4038;42.612;23.066;2022-12-05T09:39:35;93851.63;;;26.01;28.09
7986;BME280;4038;42.612;23.066;2022-12-05T09:45:24;93837.78;;;26.30;28.46
7986;BME280;4038;42.612;23.066;2022-12-05T09:48:10;93826.03;;;26.41;28.33
7986;BME280;4038;42.612;23.066;2022-12-05T09:50:47;93820.88;;;28.14;26.76
7986;BME280;4038;42.612;23.066;2022-12-05T09:53:31;93816.44;;;26.80;27.74
7986;BME280;4038;42.612;23.066;2022-12-05T10:01:39;93821.78;;;27.88;26.56
7986;BME280;4038;42.612;23.066;2022-12-05T10:07:16;93807.50;;;28.44;26.10
7986;BME280;4038;42.612;23.066;2022-12-05T10:17:40;93797.59;;;27.56;27.43
7986;BME280;4038;42.612;23.066;2022-12-05T10:20:14;93795.25;;;27.16;27.67
7986;BME280;4038;42.612;23.066;2022-12-05T10:22:46;93786.66;;;26.41;28.72
7986;BME280;4038;42.612;23.066;2022-12-05T10:25:18;93787.16;;;26.83;28.28
7986;BME280;4038;42.612;23.066;2022-12-05T10:27:50;93781.16;;;26.33;29.62
7986;BME280;4038;42.612;23.066;2022-12-05T10:30:19;93783.63;;;28.25;27.22
7986;BME280;4038;42.612;23.066;2022-12-05T10:33:14;93782.16;;;27.95;27.36
7986;BME280;4038;42.612;23.066;2022-12-05T10:35:43;93781.56;;;25.86;29.02
7986;BME280;4038;42.612;23.066;2022-12-05T10:38:32;93789.19;;;29.04;25.90
7986;BME280;4038;42.612;23.066;2022-12-05T10:40:59;93785.78;;;28.56;26.21
7986;BME280;4038;42.612;23.066;2022-12-05T10:43:28;93773.34;;;29.21;25.32
7986;BME280;4038;42.612;23.066;2022-12-05T10:45:54;93769.88;;;27.91;26.86
7986;BME280;4038;42.612;23.066;2022-12-05T10:48:21;93770.31;;;26.57;28.87
7986;BME280;4038;42.612;23.066;2022-12-05T10:50:49;93769.53;;;28.25;26.88
7986;BME280;4038;42.612;23.066;2022-12-05T10:53:18;93769.41;;;25.83;29.26
7986;BME280;4038;42.612;23.066;2022-12-05T10:55:47;93761.22;;;28.27;26.66
7986;BME280;4038;42.612;23.066;2022-12-05T10:58:17;93763.94;;;27.68;27.40
7986;BME280;4038;42.612;23.066;2022-12-05T11:00:50;93768.38;;;25.02;30.90
7986;BME280;4038;42.612;23.066;2022-12-05T11:05:49;93774.56;;;24.76;31.24
7986;BME280;4038;42.612;23.066;2022-12-05T11:08:23;93761.75;;;24.90;31.29
7986;BME280;4038;42.612;23.066;2022-12-05T11:11:01;93755.00;;;26.23;29.66
7986;BME280;4038;42.612;23.066;2022-12-05T11:13:27;93760.16;;;25.73;29.21
7986;BME280;4038;42.612;23.066;2022-12-05T11:15:52;93755.53;;;25.51;29.52
7986;BME280;4038;42.612;23.066;2022-12-05T11:18:30;93759.28;;;24.12;32.13
7986;BME280;4038;42.612;23.066;2022-12-05T11:21:07;93759.06;;;24.75;31.33
7986;BME280;4038;42.612;23.066;2022-12-05T11:23:34;93753.97;;;23.51;32.57
7986;BME280;4038;42.612;23.066;2022-12-05T11:25:59;93736.78;;;23.95;31.86
7986;BME280;4038;42.612;23.066;2022-12-05T11:28:32;93745.69;;;23.68;33.50
7986;BME280;4038;42.612;23.066;2022-12-05T11:33:32;93738.78;;;25.26;30.87
7986;BME280;4038;42.612;23.066;2022-12-05T11:36:17;93740.06;;;24.91;31.47
7986;BME280;4038;42.612;23.066;2022-12-05T11:38:45;93727.63;;;23.94;32.23
7986;BME280;4038;42.612;23.066;2022-12-05T11:47:05;93713.97;;;26.37;29.46
7986;BME280;4038;42.612;23.066;2022-12-05T11:49:46;93713.56;;;26.41;29.34
7986;BME280;4038;42.612;23.066;2022-12-05T11:55:32;93713.16;;;26.54;28.94
7986;BME280;4038;42.612;23.066;2022-12-05T12:17:47;93690.38;;;27.35;28.11
7986;BME280;4038;42.612;23.066;2022-12-05T12:20:29;93678.38;;;26.23;29.31
7986;BME280;4038;42.612;23.066;2022-12-05T12:23:10;93679.84;;;25.09;30.43
7986;BME280;4038;42.612;23.066;2022-12-05T12:40:40;93656.09;;;25.71;30.63
7986;BME280;4038;42.612;23.066;2022-12-05T12:43:24;93659.09;;;26.36;29.84
7986;BME280;4038;42.612;23.066;2022-12-05T12:51:15;93654.13;;;24.11;32.74
7986;BME280;4038;42.612;23.066;2022-12-05T12:56:59;93648.97;;;26.89;29.14
7986;BME280;4038;42.612;23.066;2022-12-05T13:08:10;93651.63;;;25.07;31.16
7986;BME280;4038;42.612;23.066;2022-12-05T13:10:42;93648.31;;;26.42;29.44
7986;BME280;4038;42.612;23.066;2022-12-05T13:13:24;93649.75;;;27.76;27.61
7986;BME280;4038;42.612;23.066;2022-12-05T13:15:57;93652.56;;;27.76;27.55
7986;BME280;4038;42.612;23.066;2022-12-05T13:18:25;93652.75;;;27.59;27.82
7986;BME280;4038;42.612;23.066;2022-12-05T13:20:53;93651.78;;;26.70;28.87
7986;BME280;4038;42.612;23.066;2022-12-05T13:23:22;93652.44;;;27.26;28.42
7986;BME280;4038;42.612;23.066;2022-12-05T13:25:49;93663.31;;;25.91;29.95
7986;BME280;4038;42.612;23.066;2022-12-05T13:28:25;93657.09;;;26.75;28.82
7986;BME280;4038;42.612;23.066;2022-12-05T13:30:52;93659.09;;;25.39;30.38
7986;BME280;4038;42.612;23.066;2022-12-05T13:33:49;93656.88;;;27.39;27.83
7986;BME280;4038;42.612;23.066;2022-12-05T13:36:20;93651.38;;;27.79;27.74
7986;BME280;4038;42.612;23.066;2022-12-05T13:39:25;93657.28;;;28.33;26.59
7986;BME280;4038;42.612;23.066;2022-12-05T13:42:21;93654.25;;;26.56;28.96
7986;BME280;4038;42.612;23.066;2022-12-05T13:45:04;93640.84;;;25.64;29.59
7986;BME280;4038;42.612;23.066;2022-12-05T13:47:59;93655.97;;;26.05;29.85
7986;BME280;4038;42.612;23.066;2022-12-05T13:50:57;93657.19;;;27.33;27.64
7986;BME280;4038;42.612;23.066;2022-12-05T13:53:45;93651.03;;;26.69;28.60
7986;BME280;4038;42.612;23.066;2022-12-05T13:58:48;93654.22;;;27.12;28.26
7986;BME280;4038;42.612;23.066;2022-12-05T14:08:59;93666.22;;;26.47;28.36
7986;BME280;4038;42.612;23.066;2022-12-05T14:11:25;93668.69;;;24.42;30.24
7986;BME280;4038;42.612;23.066;2022-12-05T14:13:51;93663.13;;;26.53;28.37
7986;BME280;4038;42.612;23.066;2022-12-05T14:34:53;93667.69;;;26.94;27.55
7986;BME280;4038;42.612;23.066;2022-12-05T14:37:26;93669.47;;;26.53;28.10
7986;BME280;4038;42.612;23.066;2022-12-05T14:39:55;93665.09;;;26.69;28.45
7986;BME280;4038;42.612;23.066;2022-12-05T14:44:52;93668.06;;;26.71;28.34
7986;BME280;4038;42.612;23.066;2022-12-05T14:47:22;93676.19;;;26.67;28.24
7986;BME280;4038;42.612;23.066;2022-12-05T14:50:21;93671.69;;;27.49;26.82
7986;BME280;4038;42.612;23.066;2022-12-05T14:56:33;93675.81;;;26.44;28.73
7986;BME280;4038;42.612;23.066;2022-12-05T15:02:18;93669.84;;;26.76;27.81
7986;BME280;4038;42.612;23.066;2022-12-05T15:07:06;93672.94;;;24.68;30.90
7986;BME280;4038;42.612;23.066;2022-12-05T15:12:22;93667.47;;;24.28;30.97
7986;BME280;4038;42.612;23.066;2022-12-05T15:17:53;64273.56;;;-143.13;100.00
7986;BME280;4038;42.612;23.066;2022-12-05T15:20:39;64273.56;;;-143.13;100.00
7986;BME280;4038;42.612;23.066;2022-12-05T15:29:00;64273.56;;;-143.13;100.00
7986;BME280;4038;42.612;23.066;2022-12-05T15:31:28;64273.56;;;-143.13;100.00
7986;BME280;4038;42.612;23.066;2022-12-05T15:33:56;64273.56;;;-143.13;100.00
7986;BME280;4038;42.612;23.066;2022-12-05T15:36:28;64273.56;;;-143.13;100.00
7986;BME280;4038;42.612;23.066;2022-12-05T15:38:57;64273.56;;;-143.13;100.00
7986;BME280;4038;42.612;23.066;2022-12-05T15:41:22;64273.56;;;-143.13;100.00
7986;BME280;4038;42.612;23.066;2022-12-05T15:43:55;64273.56;;;-143.13;100.00
7986;BME280;4038;42.612;23.066;2022-12-05T15:46:21;64273.56;;;-143.13;100.00
7986;BME280;4038;42.612;23.066;2022-12-05T15:48:56;64273.56;;;-143.13;100.00
7986;BME280;4038;42.612;23.066;2022-12-05T15:51:33;64273.56;;;-143.13;100.00
7986;BME280;4038;42.612;23.066;2022-12-05T15:54:07;64273.56;;;-143.13;100.00
7986;BME280;4038;42.612;23.066;2022-12-05T15:56:45;64273.56;;;-143.13;100.00
7986;BME280;4038;42.612;23.066;2022-12-05T15:59:35;64273.56;;;-143.13;100.00
7986;BME280;4038;42.612;23.066;2022-12-05T16:02:11;64273.56;;;-143.13;100.00
7986;BME280;4038;42.612;23.066;2022-12-05T16:04:44;64273.56;;;-143.13;100.00
7986;BME280;4038;42.612;23.066;2022-12-05T16:07:12;64273.56;;;-143.13;100.00
7986;BME280;4038;42.612;23.066;2022-12-05T16:09:40;64273.56;;;-143.13;100.00
7986;BME280;4038;42.612;23.066;2022-12-05T16:12:32;64273.56;;;-143.13;100.00
7986;BME280;4038;42.612;23.066;2022-12-05T16:15:02;64273.56;;;-143.13;100.00
7986;BME280;4038;42.612;23.066;2022-12-05T16:17:37;64273.56;;;-143.13;100.00
7986;BME280;4038;42.612;23.066;2022-12-05T16:20:34;64273.56;;;-143.13;100.00
7986;BME280;4038;42.612;23.066;2022-12-05T16:23:05;64273.56;;;-143.13;100.00
7986;BME280;4038;42.612;23.066;2022-12-05T16:25:46;64273.56;;;-143.13;100.00
7986;BME280;4038;42.612;23.066;2022-12-05T16:28:14;64273.56;;;-143.13;100.00
7986;BME280;4038;42.612;23.066;2022-12-05T16:30:55;64273.56;;;-143.13;100.00